sensor_id;sensor_type;location;lat;lon;timestamp;P1;durP1;ratioP1;P2;durP2;ratioP2
27113;SDS011;14648;49.730;8.614;2022-12-18T00:01:03;37.47;;;15.80;;
27113;SDS011;14648;49.730;8.614;2022-12-18T00:03:34;34.60;;;15.90;;
27113;SDS011;14648;49.730;8.614;2022-12-18T00:06:01;33.43;;;15.03;;
27113;SDS011;14648;49.730;8.614;2022-12-18T00:08:27;32.53;;;14.03;;
27113;SDS011;14648;49.730;8.614;2022-12-18T00:10:53;28.57;;;14.33;;
27113;SDS011;14648;49.730;8.614;2022-12-18T00:13:19;38.87;;;17.03;;
27113;SDS011;14648;49.730;8.614;2022-12-18T00:15:45;31.80;;;15.80;;
27113;SDS011;14648;49.730;8.614;2022-12-18T00:18:11;30.07;;;14.37;;
27113;SDS011;14648;49.730;8.614;2022-12-18T00:20:37;35.40;;;15.17;;
27113;SDS011;14648;49.730;8.614;2022-12-18T00:23:04;28.20;;;14.17;;
27113;SDS011;14648;49.730;8.614;2022-12-18T00:25:35;30.47;;;13.80;;
27113;SDS011;14648;49.730;8.614;2022-12-18T00:28:02;30.90;;;14.60;;
27113;SDS011;14648;49.730;8.614;2022-12-18T00:30:29;35.07;;;15.33;;
27113;SDS011;14648;49.730;8.614;2022-12-18T00:32:54;29.47;;;14.57;;
27113;SDS011;14648;49.730;8.614;2022-12-18T00:35:20;37.77;;;15.97;;
27113;SDS011;14648;49.730;8.614;2022-12-18T00:37:46;30.60;;;13.97;;
27113;SDS011;14648;49.730;8.614;2022-12-18T00:40:12;36.23;;;16.10;;
27113;SDS011;14648;49.730;8.614;2022-12-18T00:42:37;46.80;;;15.00;;
27113;SDS011;14648;49.730;8.614;2022-12-18T00:45:25;33.87;;;14.83;;
27113;SDS011;14648;49.730;8.614;2022-12-18T00:47:53;34.50;;;14.10;;
27113;SDS011;14648;49.730;8.614;2022-12-18T00:50:20;26.80;;;14.20;;
27113;SDS011;14648;49.730;8.614;2022-12-18T00:52:47;29.73;;;15.60;;
27113;SDS011;14648;49.730;8.614;2022-12-18T00:55:13;27.83;;;13.27;;
27113;SDS011;14648;49.730;8.614;2022-12-18T00:57:40;31.43;;;13.50;;
27113;SDS011;14648;49.730;8.614;2022-12-18T01:00:07;35.57;;;13.70;;
27113;SDS011;14648;49.730;8.614;2022-12-18T01:02:36;35.13;;;12.20;;
27113;SDS011;14648;49.730;8.614;2022-12-18T01:05:02;28.50;;;14.80;;
27113;SDS011;14648;49.730;8.614;2022-12-18T01:07:29;31.70;;;13.33;;
27113;SDS011;14648;49.730;8.614;2022-12-18T01:09:54;32.50;;;14.63;;
27113;SDS011;14648;49.730;8.614;2022-12-18T01:12:20;45.00;;;15.33;;
27113;SDS011;14648;49.730;8.614;2022-12-18T01:14:46;37.53;;;14.60;;
27113;SDS011;14648;49.730;8.614;2022-12-18T01:17:12;36.30;;;16.30;;
27113;SDS011;14648;49.730;8.614;2022-12-18T01:19:37;24.27;;;12.30;;
27113;SDS011;14648;49.730;8.614;2022-12-18T01:22:03;28.90;;;13.27;;
27113;SDS011;14648;49.730;8.614;2022-12-18T01:24:28;29.70;;;12.57;;
27113;SDS011;14648;49.730;8.614;2022-12-18T01:26:54;25.90;;;12.23;;
27113;SDS011;14648;49.730;8.614;2022-12-18T01:29:22;31.67;;;14.30;;
27113;SDS011;14648;49.730;8.614;2022-12-18T01:31:47;33.03;;;13.30;;
27113;SDS011;14648;49.730;8.614;2022-12-18T01:34:14;26.93;;;11.97;;
27113;SDS011;14648;49.730;8.614;2022-12-18T01:36:39;26.03;;;13.87;;
27113;SDS011;14648;49.730;8.614;2022-12-18T01:39:08;30.07;;;12.53;;
27113;SDS011;14648;49.730;8.614;2022-12-18T01:41:38;24.13;;;12.43;;
27113;SDS011;14648;49.730;8.614;2022-12-18T01:50:09;35.13;;;12.80;;
27113;SDS011;14648;49.730;8.614;2022-12-18T01:53:00;24.90;;;12.70;;
27113;SDS011;14648;49.730;8.614;2022-12-18T01:55:46;34.40;;;12.97;;
27113;SDS011;14648;49.730;8.614;2022-12-18T01:58:16;35.60;;;13.03;;
27113;SDS011;14648;49.730;8.614;2022-12-18T02:00:43;35.83;;;13.23;;
27113;SDS011;14648;49.730;8.614;2022-12-18T02:03:09;30.83;;;13.03;;
27113;SDS011;14648;49.730;8.614;2022-12-18T02:05:46;27.73;;;13.73;;
27113;SDS011;14648;49.730;8.614;2022-12-18T02:11:31;31.43;;;13.57;;
27113;SDS011;14648;49.730;8.614;2022-12-18T02:17:03;31.57;;;13.00;;
27113;SDS011;14648;49.730;8.614;2022-12-18T02:19:55;28.60;;;11.73;;
27113;SDS011;14648;49.730;8.614;2022-12-18T02:29:12;25.73;;;11.40;;
27113;SDS011;14648;49.730;8.614;2022-12-18T02:31:43;36.10;;;13.20;;
27113;SDS011;14648;49.730;8.614;2022-12-18T02:34:15;31.93;;;12.83;;
27113;SDS011;14648;49.730;8.614;2022-12-18T02:36:44;33.87;;;12.30;;
27113;SDS011;14648;49.730;8.614;2022-12-18T02:39:11;32.77;;;14.80;;
27113;SDS011;14648;49.730;8.614;2022-12-18T02:41:38;24.47;;;11.77;;
27113;SDS011;14648;49.730;8.614;2022-12-18T02:44:11;30.77;;;12.43;;
27113;SDS011;14648;49.730;8.614;2022-12-18T02:49:21;31.53;;;13.13;;
27113;SDS011;14648;49.730;8.614;2022-12-18T02:52:26;28.83;;;12.33;;
27113;SDS011;14648;49.730;8.614;2022-12-18T02:55:51;32.23;;;12.47;;
27113;SDS011;14648;49.730;8.614;2022-12-18T03:01:38;38.27;;;12.13;;
27113;SDS011;14648;49.730;8.614;2022-12-18T03:04:26;31.70;;;12.93;;
27113;SDS011;14648;49.730;8.614;2022-12-18T03:07:32;26.60;;;11.17;;
27113;SDS011;14648;49.730;8.614;2022-12-18T03:10:06;19.30;;;10.73;;
27113;SDS011;14648;49.730;8.614;2022-12-18T03:12:42;28.50;;;13.07;;
27113;SDS011;14648;49.730;8.614;2022-12-18T03:15:33;24.23;;;11.20;;
27113;SDS011;14648;49.730;8.614;2022-12-18T03:18:04;36.97;;;12.80;;
27113;SDS011;14648;49.730;8.614;2022-12-18T03:20:40;25.80;;;11.30;;
27113;SDS011;14648;49.730;8.614;2022-12-18T03:23:10;22.37;;;10.70;;
27113;SDS011;14648;49.730;8.614;2022-12-18T03:25:42;28.47;;;11.87;;
27113;SDS011;14648;49.730;8.614;2022-12-18T03:28:12;24.40;;;11.07;;
27113;SDS011;14648;49.730;8.614;2022-12-18T03:30:41;29.17;;;13.00;;
27113;SDS011;14648;49.730;8.614;2022-12-18T03:33:15;30.37;;;12.73;;
27113;SDS011;14648;49.730;8.614;2022-12-18T03:35:54;27.77;;;11.97;;
27113;SDS011;14648;49.730;8.614;2022-12-18T03:38:21;30.47;;;12.87;;
27113;SDS011;14648;49.730;8.614;2022-12-18T03:40:57;30.47;;;12.03;;
27113;SDS011;14648;49.730;8.614;2022-12-18T03:43:51;33.47;;;11.97;;
27113;SDS011;14648;49.730;8.614;2022-12-18T03:49:14;26.47;;;12.70;;
27113;SDS011;14648;49.730;8.614;2022-12-18T03:52:08;38.27;;;12.33;;
27113;SDS011;14648;49.730;8.614;2022-12-18T03:54:40;21.00;;;10.47;;
27113;SDS011;14648;49.730;8.614;2022-12-18T03:57:13;21.73;;;11.30;;
27113;SDS011;14648;49.730;8.614;2022-12-18T03:59:45;24.70;;;11.50;;
27113;SDS011;14648;49.730;8.614;2022-12-18T04:02:15;28.50;;;11.57;;
27113;SDS011;14648;49.730;8.614;2022-12-18T04:04:42;23.87;;;12.27;;
27113;SDS011;14648;49.730;8.614;2022-12-18T04:07:10;30.07;;;9.90;;
27113;SDS011;14648;49.730;8.614;2022-12-18T04:09:36;29.63;;;10.50;;
27113;SDS011;14648;49.730;8.614;2022-12-18T04:12:04;34.33;;;13.77;;
27113;SDS011;14648;49.730;8.614;2022-12-18T04:14:30;30.93;;;12.70;;
27113;SDS011;14648;49.730;8.614;2022-12-18T04:17:00;27.73;;;11.93;;
27113;SDS011;14648;49.730;8.614;2022-12-18T04:19:27;29.93;;;13.37;;
27113;SDS011;14648;49.730;8.614;2022-12-18T04:21:53;38.80;;;14.93;;
27113;SDS011;14648;49.730;8.614;2022-12-18T04:24:19;26.63;;;11.70;;
27113;SDS011;14648;49.730;8.614;2022-12-18T04:26:44;24.13;;;11.97;;
27113;SDS011;14648;49.730;8.614;2022-12-18T04:29:10;31.47;;;10.70;;
27113;SDS011;14648;49.730;8.614;2022-12-18T04:31:36;22.33;;;11.00;;
27113;SDS011;14648;49.730;8.614;2022-12-18T04:34:02;32.77;;;13.10;;
27113;SDS011;14648;49.730;8.614;2022-12-18T04:36:28;27.50;;;11.63;;
27113;SDS011;14648;49.730;8.614;2022-12-18T04:38:53;28.47;;;11.57;;
27113;SDS011;14648;49.730;8.614;2022-12-18T04:41:19;26.47;;;12.70;;
27113;SDS011;14648;49.730;8.614;2022-12-18T04:43:45;26.87;;;11.97;;
27113;SDS011;14648;49.730;8.614;2022-12-18T04:46:11;32.53;;;11.23;;
27113;SDS011;14648;49.730;8.614;2022-12-18T04:48:36;25.63;;;12.77;;
27113;SDS011;14648;49.730;8.614;2022-12-18T04:51:03;24.30;;;12.07;;
27113;SDS011;14648;49.730;8.614;2022-12-18T04:53:30;22.20;;;11.27;;
27113;SDS011;14648;49.730;8.614;2022-12-18T04:56:03;29.60;;;12.47;;
27113;SDS011;14648;49.730;8.614;2022-12-18T04:58:31;29.70;;;11.33;;
27113;SDS011;14648;49.730;8.614;2022-12-18T05:00:57;31.03;;;11.83;;
27113;SDS011;14648;49.730;8.614;2022-12-18T05:03:22;27.73;;;12.10;;
27113;SDS011;14648;49.730;8.614;2022-12-18T05:05:51;26.17;;;12.27;;
27113;SDS011;14648;49.730;8.614;2022-12-18T05:08:17;23.77;;;11.67;;
27113;SDS011;14648;49.730;8.614;2022-12-18T05:10:43;28.30;;;11.40;;
27113;SDS011;14648;49.730;8.614;2022-12-18T05:13:09;33.03;;;13.80;;
27113;SDS011;14648;49.730;8.614;2022-12-18T05:15:35;30.93;;;13.50;;
27113;SDS011;14648;49.730;8.614;2022-12-18T05:18:01;24.57;;;11.60;;
27113;SDS011;14648;49.730;8.614;2022-12-18T05:20:28;28.67;;;10.80;;
27113;SDS011;14648;49.730;8.614;2022-12-18T05:22:55;23.43;;;11.07;;
27113;SDS011;14648;49.730;8.614;2022-12-18T05:25:21;27.97;;;11.30;;
27113;SDS011;14648;49.730;8.614;2022-12-18T05:27:48;23.87;;;11.37;;
27113;SDS011;14648;49.730;8.614;2022-12-18T05:30:14;36.17;;;12.40;;
27113;SDS011;14648;49.730;8.614;2022-12-18T05:32:41;43.83;;;13.73;;
27113;SDS011;14648;49.730;8.614;2022-12-18T05:35:08;41.17;;;15.80;;
27113;SDS011;14648;49.730;8.614;2022-12-18T05:37:36;32.20;;;15.00;;
27113;SDS011;14648;49.730;8.614;2022-12-18T05:40:02;36.60;;;15.40;;
27113;SDS011;14648;49.730;8.614;2022-12-18T05:42:29;35.17;;;14.87;;
27113;SDS011;14648;49.730;8.614;2022-12-18T05:44:55;29.10;;;13.57;;
27113;SDS011;14648;49.730;8.614;2022-12-18T05:47:21;29.70;;;14.37;;
27113;SDS011;14648;49.730;8.614;2022-12-18T05:49:46;34.07;;;13.87;;
27113;SDS011;14648;49.730;8.614;2022-12-18T05:52:12;34.70;;;13.80;;
27113;SDS011;14648;49.730;8.614;2022-12-18T05:54:38;29.27;;;11.93;;
27113;SDS011;14648;49.730;8.614;2022-12-18T05:57:04;29.07;;;12.00;;
27113;SDS011;14648;49.730;8.614;2022-12-18T05:59:30;30.70;;;12.60;;
27113;SDS011;14648;49.730;8.614;2022-12-18T06:01:55;31.77;;;13.80;;
27113;SDS011;14648;49.730;8.614;2022-12-18T06:04:21;30.50;;;13.57;;
27113;SDS011;14648;49.730;8.614;2022-12-18T06:06:47;28.20;;;12.73;;
27113;SDS011;14648;49.730;8.614;2022-12-18T06:09:13;28.80;;;13.67;;
27113;SDS011;14648;49.730;8.614;2022-12-18T06:11:38;30.50;;;12.77;;
27113;SDS011;14648;49.730;8.614;2022-12-18T06:14:05;24.63;;;10.83;;
27113;SDS011;14648;49.730;8.614;2022-12-18T06:16:31;26.73;;;12.87;;
27113;SDS011;14648;49.730;8.614;2022-12-18T06:18:58;31.17;;;13.10;;
27113;SDS011;14648;49.730;8.614;2022-12-18T06:21:25;35.00;;;14.70;;
27113;SDS011;14648;49.730;8.614;2022-12-18T06:23:52;32.53;;;14.10;;
27113;SDS011;14648;49.730;8.614;2022-12-18T06:26:18;28.97;;;13.27;;
27113;SDS011;14648;49.730;8.614;2022-12-18T06:28:44;31.70;;;13.60;;
27113;SDS011;14648;49.730;8.614;2022-12-18T06:31:10;28.97;;;12.20;;
27113;SDS011;14648;49.730;8.614;2022-12-18T06:33:36;31.63;;;12.70;;
27113;SDS011;14648;49.730;8.614;2022-12-18T06:36:03;34.83;;;12.67;;
27113;SDS011;14648;49.730;8.614;2022-12-18T06:38:32;38.50;;;14.93;;
27113;SDS011;14648;49.730;8.614;2022-12-18T06:40:59;37.13;;;14.10;;
27113;SDS011;14648;49.730;8.614;2022-12-18T06:43:25;32.43;;;13.40;;
27113;SDS011;14648;49.730;8.614;2022-12-18T06:45:51;26.10;;;12.10;;
27113;SDS011;14648;49.730;8.614;2022-12-18T06:48:26;32.87;;;12.40;;
27113;SDS011;14648;49.730;8.614;2022-12-18T06:50:52;30.13;;;14.73;;
27113;SDS011;14648;49.730;8.614;2022-12-18T06:53:17;34.57;;;14.57;;
27113;SDS011;14648;49.730;8.614;2022-12-18T06:55:43;21.23;;;11.20;;
27113;SDS011;14648;49.730;8.614;2022-12-18T06:58:09;33.43;;;12.30;;
27113;SDS011;14648;49.730;8.614;2022-12-18T07:00:34;34.37;;;13.47;;
27113;SDS011;14648;49.730;8.614;2022-12-18T07:03:00;33.43;;;13.40;;
27113;SDS011;14648;49.730;8.614;2022-12-18T07:05:26;24.97;;;12.47;;
27113;SDS011;14648;49.730;8.614;2022-12-18T07:07:51;35.47;;;13.87;;
27113;SDS011;14648;49.730;8.614;2022-12-18T07:10:17;32.10;;;12.67;;
27113;SDS011;14648;49.730;8.614;2022-12-18T07:12:43;31.73;;;13.23;;
27113;SDS011;14648;49.730;8.614;2022-12-18T07:15:09;36.93;;;13.00;;
27113;SDS011;14648;49.730;8.614;2022-12-18T07:17:35;29.03;;;12.20;;
27113;SDS011;14648;49.730;8.614;2022-12-18T07:20:00;36.20;;;14.33;;
27113;SDS011;14648;49.730;8.614;2022-12-18T07:22:26;34.43;;;13.97;;
27113;SDS011;14648;49.730;8.614;2022-12-18T07:24:52;26.63;;;13.43;;
27113;SDS011;14648;49.730;8.614;2022-12-18T07:27:18;28.13;;;13.70;;
27113;SDS011;14648;49.730;8.614;2022-12-18T07:29:44;24.97;;;12.00;;
27113;SDS011;14648;49.730;8.614;2022-12-18T07:32:09;41.23;;;14.40;;
27113;SDS011;14648;49.730;8.614;2022-12-18T07:34:35;37.10;;;13.87;;
27113;SDS011;14648;49.730;8.614;2022-12-18T07:37:00;29.23;;;13.87;;
27113;SDS011;14648;49.730;8.614;2022-12-18T07:39:26;26.70;;;11.70;;
27113;SDS011;14648;49.730;8.614;2022-12-18T07:41:52;37.17;;;12.70;;
27113;SDS011;14648;49.730;8.614;2022-12-18T07:44:36;31.40;;;12.30;;
27113;SDS011;14648;49.730;8.614;2022-12-18T07:47:02;22.03;;;9.50;;
27113;SDS011;14648;49.730;8.614;2022-12-18T07:49:28;44.13;;;11.80;;
27113;SDS011;14648;49.730;8.614;2022-12-18T07:51:55;28.30;;;12.47;;
27113;SDS011;14648;49.730;8.614;2022-12-18T07:54:21;37.03;;;14.20;;
27113;SDS011;14648;49.730;8.614;2022-12-18T07:56:48;30.80;;;11.00;;
27113;SDS011;14648;49.730;8.614;2022-12-18T07:59:14;31.13;;;13.30;;
27113;SDS011;14648;49.730;8.614;2022-12-18T08:01:39;24.60;;;13.57;;
27113;SDS011;14648;49.730;8.614;2022-12-18T08:04:05;28.90;;;11.20;;
27113;SDS011;14648;49.730;8.614;2022-12-18T08:06:31;39.30;;;13.43;;
27113;SDS011;14648;49.730;8.614;2022-12-18T08:08:56;27.33;;;11.57;;
27113;SDS011;14648;49.730;8.614;2022-12-18T08:11:23;30.87;;;13.87;;
27113;SDS011;14648;49.730;8.614;2022-12-18T08:13:51;26.30;;;13.57;;
27113;SDS011;14648;49.730;8.614;2022-12-18T08:16:17;34.20;;;13.10;;
27113;SDS011;14648;49.730;8.614;2022-12-18T08:18:43;34.17;;;15.60;;
27113;SDS011;14648;49.730;8.614;2022-12-18T08:21:10;34.27;;;14.67;;
27113;SDS011;14648;49.730;8.614;2022-12-18T08:23:37;26.10;;;13.87;;
27113;SDS011;14648;49.730;8.614;2022-12-18T08:26:04;28.40;;;15.23;;
27113;SDS011;14648;49.730;8.614;2022-12-18T08:28:30;29.97;;;13.07;;
27113;SDS011;14648;49.730;8.614;2022-12-18T08:30:56;36.37;;;16.30;;
27113;SDS011;14648;49.730;8.614;2022-12-18T08:33:22;37.77;;;15.40;;
27113;SDS011;14648;49.730;8.614;2022-12-18T08:35:47;33.30;;;15.47;;
27113;SDS011;14648;49.730;8.614;2022-12-18T08:38:13;41.80;;;17.23;;
27113;SDS011;14648;49.730;8.614;2022-12-18T08:40:39;45.23;;;15.77;;
27113;SDS011;14648;49.730;8.614;2022-12-18T08:43:04;34.17;;;13.63;;
27113;SDS011;14648;49.730;8.614;2022-12-18T08:45:48;31.40;;;14.00;;
27113;SDS011;14648;49.730;8.614;2022-12-18T08:48:14;31.43;;;15.50;;
27113;SDS011;14648;49.730;8.614;2022-12-18T08:50:40;37.40;;;15.67;;
27113;SDS011;14648;49.730;8.614;2022-12-18T08:53:06;40.57;;;14.17;;
27113;SDS011;14648;49.730;8.614;2022-12-18T08:55:31;28.03;;;14.57;;
27113;SDS011;14648;49.730;8.614;2022-12-18T08:57:57;32.67;;;15.30;;
27113;SDS011;14648;49.730;8.614;2022-12-18T09:00:23;35.33;;;14.60;;
27113;SDS011;14648;49.730;8.614;2022-12-18T09:02:48;39.53;;;16.50;;
27113;SDS011;14648;49.730;8.614;2022-12-18T09:05:14;36.10;;;16.10;;
27113;SDS011;14648;49.730;8.614;2022-12-18T09:07:40;48.87;;;21.33;;
27113;SDS011;14648;49.730;8.614;2022-12-18T09:10:05;56.13;;;25.30;;
27113;SDS011;14648;49.730;8.614;2022-12-18T09:12:31;47.43;;;19.47;;
27113;SDS011;14648;49.730;8.614;2022-12-18T09:14:57;40.80;;;16.30;;
27113;SDS011;14648;49.730;8.614;2022-12-18T09:17:23;31.73;;;15.03;;
27113;SDS011;14648;49.730;8.614;2022-12-18T09:19:49;39.10;;;14.87;;
27113;SDS011;14648;49.730;8.614;2022-12-18T09:22:15;36.53;;;16.93;;
27113;SDS011;14648;49.730;8.614;2022-12-18T09:24:41;37.20;;;17.57;;
27113;SDS011;14648;49.730;8.614;2022-12-18T09:27:06;37.70;;;19.43;;
27113;SDS011;14648;49.730;8.614;2022-12-18T09:29:32;28.20;;;14.20;;
27113;SDS011;14648;49.730;8.614;2022-12-18T09:31:58;45.47;;;17.47;;
27113;SDS011;14648;49.730;8.614;2022-12-18T09:34:23;46.80;;;19.00;;
27113;SDS011;14648;49.730;8.614;2022-12-18T09:36:50;41.17;;;18.43;;
27113;SDS011;14648;49.730;8.614;2022-12-18T09:39:16;49.40;;;16.70;;
27113;SDS011;14648;49.730;8.614;2022-12-18T09:41:54;42.97;;;16.60;;
27113;SDS011;14648;49.730;8.614;2022-12-18T09:44:23;36.40;;;17.03;;
27113;SDS011;14648;49.730;8.614;2022-12-18T09:49:49;36.63;;;19.53;;
27113;SDS011;14648;49.730;8.614;2022-12-18T09:52:44;41.63;;;18.80;;
27113;SDS011;14648;49.730;8.614;2022-12-18T09:55:30;42.60;;;17.20;;
27113;SDS011;14648;49.730;8.614;2022-12-18T09:58:06;34.77;;;15.93;;
27113;SDS011;14648;49.730;8.614;2022-12-18T10:01:01;35.00;;;17.13;;
27113;SDS011;14648;49.730;8.614;2022-12-18T10:03:26;38.07;;;18.23;;
27113;SDS011;14648;49.730;8.614;2022-12-18T10:06:04;46.37;;;18.90;;
27113;SDS011;14648;49.730;8.614;2022-12-18T10:09:19;38.93;;;18.40;;
27113;SDS011;14648;49.730;8.614;2022-12-18T10:23:12;42.07;;;19.33;;
27113;SDS011;14648;49.730;8.614;2022-12-18T10:26:08;42.60;;;18.00;;
27113;SDS011;14648;49.730;8.614;2022-12-18T10:28:37;36.00;;;17.17;;
27113;SDS011;14648;49.730;8.614;2022-12-18T10:31:05;36.43;;;17.57;;
27113;SDS011;14648;49.730;8.614;2022-12-18T10:33:38;37.87;;;19.17;;
27113;SDS011;14648;49.730;8.614;2022-12-18T10:36:03;47.03;;;20.03;;
27113;SDS011;14648;49.730;8.614;2022-12-18T10:38:31;37.90;;;19.10;;
27113;SDS011;14648;49.730;8.614;2022-12-18T10:40:58;39.33;;;19.47;;
27113;SDS011;14648;49.730;8.614;2022-12-18T10:43:39;40.50;;;19.33;;
27113;SDS011;14648;49.730;8.614;2022-12-18T10:48:36;45.70;;;21.03;;
27113;SDS011;14648;49.730;8.614;2022-12-18T10:51:19;36.37;;;18.40;;
27113;SDS011;14648;49.730;8.614;2022-12-18T10:53:57;39.20;;;19.37;;
27113;SDS011;14648;49.730;8.614;2022-12-18T10:56:28;42.50;;;20.90;;
27113;SDS011;14648;49.730;8.614;2022-12-18T10:59:28;50.83;;;21.50;;
27113;SDS011;14648;49.730;8.614;2022-12-18T11:01:48;43.00;;;18.37;;
27113;SDS011;14648;49.730;8.614;2022-12-18T11:04:40;45.73;;;21.00;;
27113;SDS011;14648;49.730;8.614;2022-12-18T11:07:15;53.83;;;21.27;;
27113;SDS011;14648;49.730;8.614;2022-12-18T11:09:41;45.70;;;20.73;;
27113;SDS011;14648;49.730;8.614;2022-12-18T11:14:45;39.53;;;18.80;;
27113;SDS011;14648;49.730;8.614;2022-12-18T11:17:20;51.10;;;20.83;;
27113;SDS011;14648;49.730;8.614;2022-12-18T11:20:00;49.13;;;22.20;;
27113;SDS011;14648;49.730;8.614;2022-12-18T11:22:35;55.33;;;21.90;;
27113;SDS011;14648;49.730;8.614;2022-12-18T11:25:07;49.00;;;23.00;;
27113;SDS011;14648;49.730;8.614;2022-12-18T11:27:48;45.77;;;21.03;;
27113;SDS011;14648;49.730;8.614;2022-12-18T11:30:28;45.63;;;20.27;;
27113;SDS011;14648;49.730;8.614;2022-12-18T11:32:59;40.77;;;19.90;;
27113;SDS011;14648;49.730;8.614;2022-12-18T11:35:50;46.53;;;20.60;;
27113;SDS011;14648;49.730;8.614;2022-12-18T11:44:12;42.20;;;19.60;;
27113;SDS011;14648;49.730;8.614;2022-12-18T11:46:55;43.80;;;19.50;;
27113;SDS011;14648;49.730;8.614;2022-12-18T11:49:33;47.53;;;21.40;;
27113;SDS011;14648;49.730;8.614;2022-12-18T11:52:02;47.80;;;23.10;;
27113;SDS011;14648;49.730;8.614;2022-12-18T11:54:40;46.43;;;21.43;;
27113;SDS011;14648;49.730;8.614;2022-12-18T12:17:34;50.20;;;22.07;;
27113;SDS011;14648;49.730;8.614;2022-12-18T12:23:40;37.37;;;19.53;;
27113;SDS011;14648;49.730;8.614;2022-12-18T12:31:57;43.73;;;19.70;;
27113;SDS011;14648;49.730;8.614;2022-12-18T12:40:58;51.40;;;21.70;;
27113;SDS011;14648;49.730;8.614;2022-12-18T12:43:44;53.03;;;21.67;;
27113;SDS011;14648;49.730;8.614;2022-12-18T12:46:14;48.40;;;21.37;;
27113;SDS011;14648;49.730;8.614;2022-12-18T12:48:44;46.23;;;22.00;;
27113;SDS011;14648;49.730;8.614;2022-12-18T12:51:21;46.00;;;21.83;;
27113;SDS011;14648;49.730;8.614;2022-12-18T12:53:54;46.07;;;20.03;;
27113;SDS011;14648;49.730;8.614;2022-12-18T12:56:22;47.43;;;22.07;;
27113;SDS011;14648;49.730;8.614;2022-12-18T12:59:10;45.03;;;20.43;;
27113;SDS011;14648;49.730;8.614;2022-12-18T13:01:49;46.93;;;21.83;;
27113;SDS011;14648;49.730;8.614;2022-12-18T13:15:48;39.03;;;20.40;;
27113;SDS011;14648;49.730;8.614;2022-12-18T13:18:30;45.80;;;20.07;;
27113;SDS011;14648;49.730;8.614;2022-12-18T13:30:59;48.20;;;20.87;;
27113;SDS011;14648;49.730;8.614;2022-12-18T13:38:47;46.63;;;22.83;;
27113;SDS011;14648;49.730;8.614;2022-12-18T13:41:48;40.93;;;20.40;;
27113;SDS011;14648;49.730;8.614;2022-12-18T13:45:00;44.00;;;22.07;;
27113;SDS011;14648;49.730;8.614;2022-12-18T13:47:33;52.60;;;21.70;;
27113;SDS011;14648;49.730;8.614;2022-12-18T13:50:20;41.63;;;20.73;;
27113;SDS011;14648;49.730;8.614;2022-12-18T13:52:51;45.33;;;22.53;;
27113;SDS011;14648;49.730;8.614;2022-12-18T13:55:18;39.93;;;19.83;;
27113;SDS011;14648;49.730;8.614;2022-12-18T13:57:45;39.57;;;21.33;;
27113;SDS011;14648;49.730;8.614;2022-12-18T14:00:27;47.50;;;21.60;;
27113;SDS011;14648;49.730;8.614;2022-12-18T14:02:55;50.33;;;22.80;;
27113;SDS011;14648;49.730;8.614;2022-12-18T14:08:08;40.50;;;20.20;;
27113;SDS011;14648;49.730;8.614;2022-12-18T14:10:42;47.20;;;23.40;;
27113;SDS011;14648;49.730;8.614;2022-12-18T14:13:13;41.57;;;20.80;;
27113;SDS011;14648;49.730;8.614;2022-12-18T14:15:46;46.23;;;21.83;;
27113;SDS011;14648;49.730;8.614;2022-12-18T14:20:43;56.37;;;22.33;;
27113;SDS011;14648;49.730;8.614;2022-12-18T14:25:52;47.70;;;24.03;;
27113;SDS011;14648;49.730;8.614;2022-12-18T14:28:17;55.13;;;23.60;;
27113;SDS011;14648;49.730;8.614;2022-12-18T14:30:44;55.43;;;24.70;;
27113;SDS011;14648;49.730;8.614;2022-12-18T14:33:12;55.50;;;23.80;;
27113;SDS011;14648;49.730;8.614;2022-12-18T14:35:58;54.00;;;22.57;;
27113;SDS011;14648;49.730;8.614;2022-12-18T14:38:33;50.57;;;22.40;;
27113;SDS011;14648;49.730;8.614;2022-12-18T14:41:03;60.37;;;26.27;;
27113;SDS011;14648;49.730;8.614;2022-12-18T14:43:33;54.20;;;22.73;;
27113;SDS011;14648;49.730;8.614;2022-12-18T14:46:02;51.63;;;24.47;;
27113;SDS011;14648;49.730;8.614;2022-12-18T14:48:35;47.40;;;23.70;;
27113;SDS011;14648;49.730;8.614;2022-12-18T14:56:14;51.43;;;22.97;;
27113;SDS011;14648;49.730;8.614;2022-12-18T14:58:50;46.03;;;23.87;;
27113;SDS011;14648;49.730;8.614;2022-12-18T15:04:00;47.83;;;22.27;;
27113;SDS011;14648;49.730;8.614;2022-12-18T15:06:29;42.67;;;21.80;;
27113;SDS011;14648;49.730;8.614;2022-12-18T15:09:01;43.37;;;23.40;;
27113;SDS011;14648;49.730;8.614;2022-12-18T15:16:57;47.47;;;21.33;;
27113;SDS011;14648;49.730;8.614;2022-12-18T15:19:46;48.23;;;22.93;;
27113;SDS011;14648;49.730;8.614;2022-12-18T15:22:15;46.47;;;21.60;;
27113;SDS011;14648;49.730;8.614;2022-12-18T15:24:50;42.70;;;20.53;;
27113;SDS011;14648;49.730;8.614;2022-12-18T15:27:23;46.20;;;21.67;;
27113;SDS011;14648;49.730;8.614;2022-12-18T15:32:38;58.83;;;24.50;;
27113;SDS011;14648;49.730;8.614;2022-12-18T15:37:36;51.73;;;23.00;;
27113;SDS011;14648;49.730;8.614;2022-12-18T15:40:07;49.53;;;21.80;;
27113;SDS011;14648;49.730;8.614;2022-12-18T15:42:37;46.17;;;22.00;;
27113;SDS011;14648;49.730;8.614;2022-12-18T15:45:21;53.20;;;21.60;;
27113;SDS011;14648;49.730;8.614;2022-12-18T15:47:47;54.20;;;22.67;;
27113;SDS011;14648;49.730;8.614;2022-12-18T15:50:13;47.67;;;23.13;;
27113;SDS011;14648;49.730;8.614;2022-12-18T15:52:39;57.90;;;25.40;;
27113;SDS011;14648;49.730;8.614;2022-12-18T15:55:18;55.40;;;27.07;;
27113;SDS011;14648;49.730;8.614;2022-12-18T15:58:05;47.63;;;24.03;;
27113;SDS011;14648;49.730;8.614;2022-12-18T16:00:32;47.87;;;24.57;;
27113;SDS011;14648;49.730;8.614;2022-12-18T16:03:00;60.40;;;25.13;;
27113;SDS011;14648;49.730;8.614;2022-12-18T16:05:27;61.70;;;25.50;;
27113;SDS011;14648;49.730;8.614;2022-12-18T16:07:54;53.80;;;24.20;;
27113;SDS011;14648;49.730;8.614;2022-12-18T16:10:20;47.10;;;25.17;;
27113;SDS011;14648;49.730;8.614;2022-12-18T16:12:47;65.97;;;23.57;;
27113;SDS011;14648;49.730;8.614;2022-12-18T16:15:13;41.53;;;21.57;;
27113;SDS011;14648;49.730;8.614;2022-12-18T16:17:41;49.80;;;22.67;;
27113;SDS011;14648;49.730;8.614;2022-12-18T16:20:18;47.43;;;22.30;;
27113;SDS011;14648;49.730;8.614;2022-12-18T16:22:46;52.00;;;22.80;;
27113;SDS011;14648;49.730;8.614;2022-12-18T16:25:27;50.27;;;23.17;;
27113;SDS011;14648;49.730;8.614;2022-12-18T16:27:53;50.90;;;24.10;;
27113;SDS011;14648;49.730;8.614;2022-12-18T16:30:21;51.67;;;23.83;;
27113;SDS011;14648;49.730;8.614;2022-12-18T16:32:53;54.10;;;22.93;;
27113;SDS011;14648;49.730;8.614;2022-12-18T16:35:20;48.90;;;24.97;;
27113;SDS011;14648;49.730;8.614;2022-12-18T16:37:46;53.63;;;23.60;;
27113;SDS011;14648;49.730;8.614;2022-12-18T16:40:13;47.20;;;24.60;;
27113;SDS011;14648;49.730;8.614;2022-12-18T16:42:41;47.73;;;22.93;;
27113;SDS011;14648;49.730;8.614;2022-12-18T16:45:11;55.33;;;25.40;;
27113;SDS011;14648;49.730;8.614;2022-12-18T16:47:41;58.87;;;25.40;;
27113;SDS011;14648;49.730;8.614;2022-12-18T16:50:07;51.60;;;25.50;;
27113;SDS011;14648;49.730;8.614;2022-12-18T16:52:34;55.10;;;26.80;;
27113;SDS011;14648;49.730;8.614;2022-12-18T16:55:01;52.00;;;25.50;;
27113;SDS011;14648;49.730;8.614;2022-12-18T16:57:27;59.67;;;25.50;;
27113;SDS011;14648;49.730;8.614;2022-12-18T16:59:54;48.53;;;25.13;;
27113;SDS011;14648;49.730;8.614;2022-12-18T17:02:20;56.83;;;26.47;;